Time;durP1;ratioP1;P1;durP2;ratioP2;P2;SDS_P1;SDS_P2;PMS_P1;PMS_P2;Temp;Humidity;BMP_temperature;BMP_pressure;BME280_temperature;BME280_humidity;BME280_pressure;Samples;Min_cycle;Max_cycle;Signal;HPM_P1;HPM_P2
2023/12/06 00:02:03;;;;;;;86.20;32.40;;;;;;;-5.99;100.00;98740.75;135551;1279;22530;-67
2023/12/06 00:05:10;;;;;;;83.00;31.70;;;;;;;-6.01;100.00;98741.77;135527;1279;22529;-67
2023/12/06 00:08:13;;;;;;;78.80;31.40;;;;;;;-5.92;100.00;98743.47;135525;1279;22544;-67
2023/12/06 00:11:15;;;;;;;77.50;31.10;;;;;;;-5.78;100.00;98753.06;135540;1279;25463;-68
2023/12/06 00:14:18;;;;;;;74.90;30.10;;;;;;;-5.82;100.00;98756.96;135513;1279;22532;-67
2023/12/06 00:17:20;;;;;;;82.00;33.00;;;;;;;-5.73;100.00;98759.38;135568;1279;22541;-68
2023/12/06 00:20:23;;;;;;;82.30;33.90;;;;;;;-5.66;100.00;98758.20;135519;1261;22531;-67
2023/12/06 00:23:26;;;;;;;86.00;34.70;;;;;;;-5.61;100.00;98760.27;135534;1279;22532;-67
2023/12/06 00:26:28;;;;;;;83.30;34.30;;;;;;;-5.45;100.00;98768.67;135534;1267;22533;-67
2023/12/06 00:29:31;;;;;;;93.70;36.70;;;;;;;-5.44;100.00;98774.80;135500;1279;22553;-67
2023/12/06 00:32:33;;;;;;;90.20;36.20;;;;;;;-5.35;100.00;98772.44;135526;1279;22545;-68
2023/12/06 00:35:36;;;;;;;94.10;36.40;;;;;;;-5.48;100.00;98775.98;135546;1279;22544;-67
2023/12/06 00:38:38;;;;;;;90.50;36.20;;;;;;;-5.36;100.00;98757.95;135552;1279;22554;-68
2023/12/06 00:41:41;;;;;;;97.50;38.60;;;;;;;-5.51;100.00;98752.64;135532;1279;22536;-68
2023/12/06 00:44:43;;;;;;;97.30;39.10;;;;;;;-5.57;100.00;98753.30;135535;1261;22761;-68
2023/12/06 00:47:46;;;;;;;98.30;39.00;;;;;;;-5.56;100.00;98754.48;135534;1279;25258;-67
2023/12/06 00:50:49;;;;;;;95.30;38.20;;;;;;;-5.52;100.00;98757.40;135521;1279;22544;-68
2023/12/06 00:53:51;;;;;;;96.10;39.00;;;;;;;-5.38;100.00;98758.63;135515;1261;22540;-68
2023/12/06 00:56:54;;;;;;;96.70;39.00;;;;;;;-5.29;100.00;98759.15;135550;1279;22555;-68
2023/12/06 00:59:56;;;;;;;97.90;37.70;;;;;;;-5.19;100.00;98756.27;135491;1279;25404;-68
2023/12/06 01:02:59;;;;;;;90.60;36.20;;;;;;;-5.11;100.00;98756.80;135476;1279;22543;-68
2023/12/06 01:06:01;;;;;;;91.00;36.80;;;;;;;-5.04;100.00;98759.35;135465;1279;22577;-68
2023/12/06 01:09:06;;;;;;;95.10;38.80;;;;;;;-4.95;100.00;98753.73;135511;1279;22542;-68
2023/12/06 01:12:09;;;;;;;95.50;35.60;;;;;;;-4.92;100.00;98755.42;135520;1259;22530;-69
2023/12/06 01:15:11;;;;;;;90.00;38.30;;;;;;;-4.81;100.00;98751.34;135435;1279;22556;-69
2023/12/06 01:18:14;;;;;;;90.30;37.50;;;;;;;-4.77;100.00;98751.67;135429;1279;22544;-67
2023/12/06 01:21:16;;;;;;;88.80;36.30;;;;;;;-4.73;100.00;98753.39;135499;1279;22613;-68
2023/12/06 01:24:19;;;;;;;90.00;35.90;;;;;;;-4.65;100.00;98750.82;135372;1262;22536;-68
2023/12/06 01:27:21;;;;;;;95.10;37.00;;;;;;;-4.57;100.00;98746.73;135462;1279;24223;-68
2023/12/06 01:30:24;;;;;;;92.00;36.20;;;;;;;-4.40;100.00;98743.79;135458;1279;22543;-68
2023/12/06 01:33:27;;;;;;;91.70;37.40;;;;;;;-4.22;100.00;98742.89;135342;1279;22546;-68
2023/12/06 01:36:29;;;;;;;97.10;37.60;;;;;;;-4.16;100.00;98737.23;135467;1280;22579;-68
2023/12/06 01:39:32;;;;;;;89.00;38.70;;;;;;;-4.27;100.00;98732.48;135504;1279;22540;-68
2023/12/06 01:42:34;;;;;;;94.00;37.80;;;;;;;-4.29;100.00;98733.17;135512;1270;24387;-68
2023/12/06 01:45:37;;;;;;;100.10;40.30;;;;;;;-4.05;100.00;98737.04;135491;1279;22551;-69
2023/12/06 01:48:39;;;;;;;92.20;41.30;;;;;;;-3.80;100.00;98733.00;135510;1264;22574;-68
2023/12/06 01:51:42;;;;;;;96.50;40.40;;;;;;;-3.72;100.00;98732.96;135434;1279;22636;-67
2023/12/06 01:54:44;;;;;;;97.80;40.20;;;;;;;-3.73;100.00;98735.88;135435;1279;22559;-68
2023/12/06 01:57:47;;;;;;;98.20;39.50;;;;;;;-3.84;100.00;98738.31;135473;1279;22539;-68
2023/12/06 02:00:50;;;;;;;94.00;39.40;;;;;;;-3.89;100.00;98736.12;135487;1279;22552;-69
2023/12/06 02:03:52;;;;;;;98.10;38.60;;;;;;;-4.01;100.00;98733.95;135489;1279;24355;-68
2023/12/06 02:06:55;;;;;;;87.90;38.20;;;;;;;-4.10;100.00;98730.22;135490;1279;25230;-68
2023/12/06 02:09:57;;;;;;;96.80;38.90;;;;;;;-4.14;100.00;98728.70;135511;1279;22625;-67
2023/12/06 02:13:00;;;;;;;92.80;39.00;;;;;;;-4.04;100.00;98734.30;135438;1279;22536;-68
2023/12/06 02:16:03;;;;;;;89.80;38.40;;;;;;;-4.11;100.00;98737.39;135506;1279;22539;-68
2023/12/06 02:19:05;;;;;;;109.70;42.50;;;;;;;-4.16;100.00;98736.55;135504;1279;24426;-68
2023/12/06 02:22:08;;;;;;;106.40;44.10;;;;;;;-4.19;100.00;98734.69;135515;1279;22533;-69
2023/12/06 02:25:10;;;;;;;96.60;41.00;;;;;;;-4.13;100.00;98735.86;135467;1279;22613;-69
2023/12/06 02:28:13;;;;;;;96.10;38.80;;;;;;;-4.05;100.00;98731.38;135516;1261;22534;-68
2023/12/06 02:31:15;;;;;;;91.30;39.50;;;;;;;-3.95;100.00;98727.42;135529;1260;22579;-68
2023/12/06 02:34:18;;;;;;;93.40;38.00;;;;;;;-3.87;100.00;98732.86;135539;1279;22536;-68
2023/12/06 02:37:21;;;;;;;93.50;38.80;;;;;;;-3.87;100.00;98730.81;135505;1279;24268;-68
2023/12/06 02:40:23;;;;;;;96.30;38.50;;;;;;;-3.76;100.00;98731.61;135537;1279;22585;-68
2023/12/06 02:43:26;;;;;;;91.50;38.30;;;;;;;-3.69;100.00;98730.55;135504;1279;24238;-66
2023/12/06 02:46:28;;;;;;;88.70;36.50;;;;;;;-3.56;100.00;98731.17;135509;1279;23644;-68
2023/12/06 02:49:31;;;;;;;84.20;36.00;;;;;;;-3.44;100.00;98730.77;135523;1279;22605;-67
2023/12/06 02:52:35;;;;;;;92.60;37.10;;;;;;;-3.34;100.00;98727.62;135515;1279;22529;-68
2023/12/06 02:55:38;;;;;;;87.30;37.80;;;;;;;-3.22;100.00;98732.68;135512;1279;22533;-68
2023/12/06 02:58:40;;;;;;;;;;;;;;;-3.16;100.00;98732.30;135542;1262;24189;-68
2023/12/06 03:01:43;;;;;;;95.90;39.10;;;;;;;-3.20;100.00;98732.84;135474;1258;22656;-68
2023/12/06 03:04:45;;;;;;;88.30;37.90;;;;;;;-3.24;100.00;98732.70;135505;1279;22539;-69
2023/12/06 03:07:48;;;;;;;91.30;37.60;;;;;;;-3.20;100.00;98734.04;135514;1279;22552;-68
2023/12/06 03:10:50;;;;;;;87.70;36.50;;;;;;;-3.22;100.00;98736.78;135513;1279;22533;-68
2023/12/06 03:13:53;;;;;;;;;;;;;;;-3.20;100.00;98735.91;135539;1279;22510;-69
2023/12/06 03:16:56;;;;;;;100.60;37.30;;;;;;;-3.22;100.00;98737.14;135475;1279;22536;-69
2023/12/06 03:19:58;;;;;;;93.40;38.40;;;;;;;-3.29;100.00;98735.63;135545;1270;22626;-69
2023/12/06 03:23:01;;;;;;;92.10;36.70;;;;;;;-3.35;100.00;98736.52;135491;1261;22536;-68
2023/12/06 03:26:03;;;;;;;;;;;;;;;-3.39;100.00;98742.54;135520;1279;25158;-68
2023/12/06 03:29:06;;;;;;;92.70;36.40;;;;;;;-3.43;100.00;98739.66;135478;1262;22533;-67
2023/12/06 03:32:08;;;;;;;95.70;38.40;;;;;;;-3.43;100.00;98737.42;135499;1279;22579;-67
2023/12/06 03:35:11;;;;;;;93.40;39.10;;;;;;;-3.42;100.00;98736.05;135488;1279;22535;-68
2023/12/06 03:38:14;;;;;;;96.40;38.60;;;;;;;-3.47;100.00;98736.77;135482;1279;22539;-68
2023/12/06 03:41:16;;;;;;;100.50;42.50;;;;;;;-3.52;100.00;98734.58;135461;1279;22594;-67
2023/12/06 03:44:19;;;;;;;104.90;42.80;;;;;;;-3.47;100.00;98737.45;135449;1279;22535;-70
2023/12/06 03:47:21;;;;;;;98.30;41.00;;;;;;;-3.46;100.00;98733.35;135439;1279;22648;-70
2023/12/06 03:50:24;;;;;;;90.80;39.80;;;;;;;-3.47;100.00;98729.41;135537;1279;22529;-68
2023/12/06 03:53:26;;;;;;;90.20;37.00;;;;;;;-3.41;100.00;98730.91;135525;1279;22589;-69
2023/12/06 03:56:29;;;;;;;93.10;38.20;;;;;;;-3.19;100.00;98726.33;135554;1279;22551;-68
2023/12/06 03:59:32;;;;;;;88.60;36.10;;;;;;;-3.05;100.00;98722.30;135554;1279;22555;-69
2023/12/06 04:02:34;;;;;;;;;;;;;;;-3.05;100.00;98723.48;135567;1279;22617;-69
2023/12/06 04:05:37;;;;;;;87.00;34.80;;;;;;;-3.01;100.00;98726.89;135532;1279;22530;-67
2023/12/06 04:08:40;;;;;;;89.80;34.90;;;;;;;-2.98;100.00;98726.34;135570;1279;22530;-68
2023/12/06 04:11:42;;;;;;;;;;;;;;;-2.91;100.00;98727.83;135589;1279;22513;-68
2023/12/06 04:14:45;;;;;;;92.50;37.30;;;;;;;-2.84;100.00;98727.60;135533;1279;22581;-68
2023/12/06 04:17:47;;;;;;;89.10;38.30;;;;;;;-2.90;100.00;98727.14;135531;1279;22554;-68
2023/12/06 04:20:50;;;;;;;90.10;36.10;;;;;;;-3.06;100.00;98727.94;135586;1276;22577;-68
2023/12/06 04:23:52;;;;;;;91.20;38.00;;;;;;;-3.11;100.00;98730.54;135532;1279;22583;-68
2023/12/06 04:26:55;;;;;;;93.30;39.80;;;;;;;-3.14;100.00;98732.45;135538;1279;25336;-68
2023/12/06 04:29:58;;;;;;;87.30;37.70;;;;;;;-3.22;100.00;98735.76;135549;1256;22593;-68
2023/12/06 04:33:01;;;;;;;;;;;;;;;-3.32;100.00;98735.66;135552;1279;22613;-68
2023/12/06 04:36:04;;;;;;;98.50;36.20;;;;;;;-3.39;100.00;98742.19;135574;1279;22548;-68
2023/12/06 04:39:06;;;;;;;90.50;38.60;;;;;;;-3.37;100.00;98740.30;135554;1279;22543;-68
2023/12/06 04:42:09;;;;;;;94.40;38.30;;;;;;;-3.41;100.00;98743.39;135561;1279;22539;-68
2023/12/06 04:45:11;;;;;;;;;;;;;;;-3.46;100.00;98746.85;135598;1279;22545;-67
2023/12/06 04:48:14;;;;;;;;;;;;;;;-3.41;100.00;98749.23;135549;1279;22567;-68
2023/12/06 04:51:18;;;;;;;98.40;37.30;;;;;;;-3.49;100.00;98746.20;135550;1279;22577;-67
2023/12/06 04:54:20;;;;;;;103.90;42.40;;;;;;;-3.57;100.00;98745.88;135575;1279;22595;-68
2023/12/06 04:57:23;;;;;;;;;;;;;;;-3.59;100.00;98743.84;135598;1279;22514;-67
2023/12/06 05:00:26;;;;;;;94.10;39.70;;;;;;;-3.62;100.00;98743.68;135592;1279;22590;-68
2023/12/06 05:03:30;;;;;;;91.30;38.30;;;;;;;-3.55;100.00;98746.73;135572;1279;22572;-67
2023/12/06 05:06:35;;;;;;;92.20;39.80;;;;;;;-3.41;100.00;98748.02;135580;1279;22532;-69
2023/12/06 05:12:06;;;;;;;87.60;39.10;;;;;;;-3.29;100.00;98749.30;131745;1313;545398;-67
2023/12/06 05:15:09;;;;;;;96.70;40.40;;;;;;;-3.05;100.00;98756.34;134857;1270;23321;-68
2023/12/06 05:18:12;;;;;;;93.70;38.90;;;;;;;-3.15;100.00;98759.14;134852;1274;22818;-68
2023/12/06 05:21:14;;;;;;;96.00;40.10;;;;;;;-3.12;100.00;98758.78;134846;1279;22543;-67
2023/12/06 05:24:17;;;;;;;101.30;43.40;;;;;;;-3.17;100.00;98760.53;134679;1285;284768;-69
2023/12/06 05:27:21;;;;;;;;;;;;;;;-3.17;100.00;98762.41;134966;1285;22532;-68
2023/12/06 05:30:24;;;;;;;98.30;40.40;;;;;;;-3.15;100.00;98766.16;134965;1285;22545;-68
2023/12/06 05:33:28;;;;;;;99.90;42.00;;;;;;;-3.28;100.00;98771.20;134972;1285;22543;-68
2023/12/06 05:36:30;;;;;;;99.50;40.90;;;;;;;-3.37;100.00;98772.44;135508;1259;22643;-68
2023/12/06 05:39:35;;;;;;;95.00;39.60;;;;;;;-3.33;100.00;98773.29;135933;1276;25584;-68
2023/12/06 05:42:38;;;;;;;95.20;40.80;;;;;;;-3.40;100.00;98777.77;135942;1276;22555;-68
2023/12/06 05:45:41;;;;;;;95.90;40.90;;;;;;;-3.46;100.00;98770.45;135901;1276;22679;-68
2023/12/06 05:48:43;;;;;;;99.60;44.90;;;;;;;-3.43;100.00;98766.84;135880;1276;26563;-68
2023/12/06 05:51:46;;;;;;;98.70;40.20;;;;;;;-3.35;100.00;98764.05;135850;1276;22560;-68
2023/12/06 05:54:49;;;;;;;92.30;38.60;;;;;;;-3.29;100.00;98759.92;135873;1276;22626;-68
2023/12/06 05:57:51;;;;;;;87.50;36.80;;;;;;;-3.25;100.00;98761.27;135874;1276;22641;-68
2023/12/06 06:00:55;;;;;;;90.30;39.20;;;;;;;-3.22;100.00;98761.92;135897;1276;22545;-68
2023/12/06 06:03:58;;;;;;;87.90;36.10;;;;;;;-3.15;100.00;98759.83;135944;1276;22542;-69
2023/12/06 06:07:01;;;;;;;91.00;39.50;;;;;;;-3.22;100.00;98759.70;135948;1276;22524;-68
2023/12/06 06:10:03;;;;;;;98.90;40.40;;;;;;;-3.28;100.00;98762.30;135912;1276;22562;-67
2023/12/06 06:13:06;;;;;;;93.60;39.30;;;;;;;-3.34;100.00;98760.80;135938;1258;22922;-68
2023/12/06 06:16:09;;;;;;;96.90;39.70;;;;;;;-3.36;100.00;98766.63;135955;1276;22635;-68
2023/12/06 06:19:11;;;;;;;90.80;37.70;;;;;;;-3.49;100.00;98766.35;135932;1276;22488;-68
2023/12/06 06:22:14;;;;;;;94.60;38.80;;;;;;;-3.40;100.00;98761.17;135890;1276;24488;-68
2023/12/06 06:25:16;;;;;;;98.30;41.20;;;;;;;-3.42;100.00;98765.30;135870;1276;22534;-68
2023/12/06 06:28:19;;;;;;;97.50;40.10;;;;;;;-3.48;100.00;98768.23;135927;1276;22530;-68
2023/12/06 06:31:21;;;;;;;;;;;;;;;-3.53;100.00;98771.67;135872;1276;22517;-68
2023/12/06 06:34:24;;;;;;;98.60;40.60;;;;;;;-3.46;100.00;98770.79;135927;1276;25297;-67
2023/12/06 06:37:27;;;;;;;85.50;37.40;;;;;;;-3.50;100.00;98776.61;135901;1276;22636;-68
2023/12/06 06:40:30;;;;;;;92.20;39.20;;;;;;;-3.53;100.00;98780.22;135871;1276;22533;-68
2023/12/06 06:43:32;;;;;;;93.40;41.70;;;;;;;-3.51;100.00;98785.51;135900;1276;22641;-68
2023/12/06 06:46:35;;;;;;;97.10;39.60;;;;;;;-3.45;100.00;98782.59;135870;1276;22530;-68
2023/12/06 06:49:37;;;;;;;96.90;41.70;;;;;;;-3.40;100.00;98784.09;135869;1276;22668;-68
2023/12/06 06:52:40;;;;;;;87.60;36.80;;;;;;;-3.36;100.00;98790.73;135875;1276;22540;-68
2023/12/06 06:55:42;;;;;;;91.20;39.80;;;;;;;-3.42;100.00;98795.05;135873;1276;22552;-68
2023/12/06 06:58:45;;;;;;;92.10;39.10;;;;;;;-3.40;100.00;98792.30;135932;1276;23910;-67
2023/12/06 07:01:48;;;;;;;94.50;39.40;;;;;;;-3.26;100.00;98794.79;135917;1276;22534;-68
2023/12/06 07:04:51;;;;;;;;;;;;;;;-3.11;100.00;98794.35;135917;1276;22515;-67
2023/12/06 07:07:53;;;;;;;102.60;43.40;;;;;;;-2.99;100.00;98796.84;135878;1276;22535;-68
2023/12/06 07:10:56;;;;;;;;;;;;;;;-2.98;100.00;98802.33;135903;1276;22511;-68
2023/12/06 07:13:58;;;;;;;91.40;39.60;;;;;;;-2.95;100.00;98801.61;136086;1256;22526;-68
2023/12/06 07:17:01;;;;;;;;;;;;;;;-2.86;100.00;98807.02;136124;1274;22510;-68
2023/12/06 07:20:04;;;;;;;;;;;;;;;-2.72;100.00;98813.08;136099;1274;22507;-68
2023/12/06 07:23:08;;;;;;;88.60;36.00;;;;;;;-2.63;100.00;98808.56;136026;1257;22543;-67
2023/12/06 07:26:10;;;;;;;83.00;36.60;;;;;;;-2.51;100.00;98811.38;136116;1274;22526;-68
2023/12/06 07:29:13;;;;;;;81.20;37.20;;;;;;;-2.32;100.00;98815.49;136115;1274;22573;-68
2023/12/06 07:32:16;;;;;;;76.20;34.70;;;;;;;-2.16;100.00;98816.71;136119;1274;25408;-68
2023/12/06 07:35:18;;;;;;;;;;;;;;;-2.04;100.00;98813.01;136114;1258;22498;-68
2023/12/06 07:38:21;;;;;;;83.40;35.20;;;;;;;-2.06;100.00;98815.42;136110;1274;22533;-68
2023/12/06 07:41:24;;;;;;;;;;;;;;;-2.00;100.00;98818.96;136077;1274;22521;-68
2023/12/06 07:44:26;;;;;;;81.20;35.70;;;;;;;-2.00;100.00;98824.27;136104;1274;22540;-68
2023/12/06 07:47:30;;;;;;;93.30;39.50;;;;;;;-1.95;100.00;98827.67;136115;1274;22599;-68
2023/12/06 07:50:33;;;;;;;85.00;38.30;;;;;;;-1.93;100.00;98823.86;136041;1274;22584;-68
2023/12/06 07:53:35;;;;;;;86.00;36.70;;;;;;;-1.95;100.00;98821.31;136103;1274;22534;-69
2023/12/06 07:56:40;;;;;;;;;;;;;;;-1.96;100.00;98828.17;136086;1274;22510;-68
2023/12/06 07:59:47;;;;;;;88.30;36.60;;;;;;;-2.02;100.00;98825.16;135962;1260;22612;-67
2023/12/06 08:02:50;;;;;;;86.80;36.80;;;;;;;-2.03;100.00;98827.58;136012;1274;23912;-68
2023/12/06 08:05:52;;;;;;;83.10;37.30;;;;;;;-1.94;100.00;98832.10;136133;1274;22527;-67
2023/12/06 08:08:55;;;;;;;80.60;36.00;;;;;;;-1.68;100.00;98837.30;135977;1274;22784;-67
2023/12/06 08:11:58;;;;;;;88.50;38.80;;;;;;;-1.55;100.00;98830.98;136060;1263;22525;-68
2023/12/06 08:15:01;;;;;;;;;;;;;;;-1.50;100.00;98833.85;136033;1274;22502;-68
2023/12/06 08:18:06;;;;;;;82.40;36.10;;;;;;;-1.28;100.00;98833.05;136114;1274;25568;-67
2023/12/06 08:21:09;;;;;;;81.50;35.90;;;;;;;-1.20;100.00;98833.30;136097;1274;22533;-69
2023/12/06 08:24:12;;;;;;;;;;;;;;;-1.08;100.00;98832.95;136041;1274;22515;-69
2023/12/06 08:27:15;;;;;;;81.60;37.10;;;;;;;-1.01;100.00;98833.38;136008;1274;22534;-68
2023/12/06 08:30:18;;;;;;;80.70;35.80;;;;;;;-0.85;100.00;98835.05;136010;1274;22572;-69
2023/12/06 08:33:23;;;;;;;82.70;35.90;;;;;;;-0.57;100.00;98830.84;136033;1274;22616;-68
2023/12/06 08:36:25;;;;;;;76.70;35.20;;;;;;;-0.47;100.00;98824.85;135993;1274;22555;-68
2023/12/06 08:39:28;;;;;;;;;;;;;;;-0.33;100.00;98821.36;135995;1274;22500;-68
2023/12/06 08:42:30;;;;;;;86.10;37.20;;;;;;;-0.15;100.00;98821.38;135961;1260;23910;-68
2023/12/06 08:45:33;;;;;;;;;;;;;;;0.14;100.00;98817.94;135991;1274;22507;-68
2023/12/06 08:48:36;;;;;;;79.60;37.20;;;;;;;0.32;100.00;98818.45;136044;1257;22906;-69
2023/12/06 08:51:38;;;;;;;;;;;;;;;0.39;100.00;98817.47;136037;1274;22511;-68
2023/12/06 08:54:41;;;;;;;75.60;34.80;;;;;;;0.54;100.00;98816.82;135999;1274;22534;-68
2023/12/06 08:57:43;;;;;;;;;;;;;;;0.76;100.00;98816.20;136055;1274;22491;-68
2023/12/06 09:00:46;;;;;;;79.50;35.80;;;;;;;0.82;100.00;98815.21;136164;1274;22519;-69
2023/12/06 09:03:49;;;;;;;;;;;;;;;0.80;100.00;98817.65;136143;1257;22514;-68
2023/12/06 09:06:51;;;;;;;72.10;32.90;;;;;;;0.80;100.00;98821.80;136107;1274;22534;-69
2023/12/06 09:09:54;;;;;;;;;;;;;;;0.93;100.00;98816.35;136033;1274;22530;-69
2023/12/06 09:12:56;;;;;;;80.20;36.00;;;;;;;1.06;100.00;98814.70;136147;1274;25245;-69
2023/12/06 09:15:59;;;;;;;;;;;;;;;1.05;100.00;98808.16;136105;1274;22497;-68
2023/12/06 09:19:01;;;;;;;66.40;32.50;;;;;;;1.17;100.00;98805.46;136094;1274;22546;-69
2023/12/06 09:22:05;;;;;;;;;;;;;;;1.26;100.00;98803.20;136163;1274;22509;-69
2023/12/06 09:25:07;;;;;;;67.50;30.20;;;;;;;1.19;100.00;98804.56;136142;1274;22533;-69
2023/12/06 09:28:11;;;;;;;;;;;;;;;1.29;100.00;98806.05;136082;1274;25233;-69
2023/12/06 09:31:13;;;;;;;65.10;30.20;;;;;;;1.49;100.00;98800.25;136093;1274;22510;-69
2023/12/06 09:34:16;;;;;;;;;;;;;;;1.70;100.00;98801.08;135996;1274;22511;-69
2023/12/06 09:37:18;;;;;;;68.80;32.20;;;;;;;1.92;100.00;98800.35;136096;1274;22553;-69
2023/12/06 09:40:21;;;;;;;70.60;33.20;;;;;;;1.91;100.00;98798.48;136106;1274;22552;-69
2023/12/06 09:43:24;;;;;;;;;;;;;;;1.95;100.00;98804.42;136115;1274;24014;-69
2023/12/06 09:46:26;;;;;;;71.10;34.00;;;;;;;2.13;100.00;98808.44;136154;1261;22767;-70
2023/12/06 09:49:29;;;;;;;;;;;;;;;2.19;100.00;98808.80;136121;1263;22507;-69
2023/12/06 09:52:31;;;;;;;73.90;34.50;;;;;;;2.37;100.00;98804.69;136118;1274;22530;-69
2023/12/06 09:55:35;;;;;;;78.20;37.10;;;;;;;2.56;100.00;98804.33;136085;1272;23044;-70
2023/12/06 09:58:38;;;;;;;79.80;37.60;;;;;;;2.67;100.00;98807.64;136162;1274;22546;-69
2023/12/06 10:01:40;;;;;;;83.10;39.70;;;;;;;2.63;100.00;98812.05;136104;1274;22545;-68
2023/12/06 10:04:43;;;;;;;82.00;40.60;;;;;;;2.69;100.00;98806.69;136077;1274;22649;-68
2023/12/06 10:07:46;;;;;;;;;;;;;;;2.68;100.00;98802.77;136029;1274;22511;-70
2023/12/06 10:10:48;;;;;;;83.10;40.80;;;;;;;2.43;100.00;98800.02;136046;1274;22526;-70
2023/12/06 10:13:51;;;;;;;;;;;;;;;2.48;100.00;98798.66;136021;1274;22496;-70
2023/12/06 10:16:54;;;;;;;74.20;35.60;;;;;;;2.72;100.00;98799.55;136044;1274;22783;-70
2023/12/06 10:19:56;;;;;;;;;;;;;;;2.90;100.00;98801.08;135976;1274;22563;-70
2023/12/06 10:22:59;;;;;;;72.80;33.20;;;;;;;3.15;100.00;98801.55;136033;1274;22516;-70
2023/12/06 10:26:03;;;;;;;;;;;;;;;3.32;100.00;98794.94;136106;1274;25229;-69
2023/12/06 10:29:06;;;;;;;72.80;33.40;;;;;;;3.48;100.00;98792.70;136016;1274;23280;-70
2023/12/06 10:32:09;;;;;;;69.50;33.50;;;;;;;3.56;100.00;98787.09;136155;1274;22526;-69
2023/12/06 10:35:11;;;;;;;67.80;32.90;;;;;;;3.68;100.00;98784.97;136082;1274;22538;-69
2023/12/06 10:38:14;;;;;;;68.80;34.80;;;;;;;3.67;100.00;98786.04;135971;1256;22723;-70
2023/12/06 10:41:17;;;;;;;72.50;34.60;;;;;;;3.55;100.00;98788.84;136018;1274;22526;-67
2023/12/06 10:44:20;;;;;;;75.50;35.20;;;;;;;3.37;100.00;98791.49;135992;1256;22542;-69
2023/12/06 10:47:22;;;;;;;77.10;40.20;;;;;;;3.30;100.00;98788.09;136050;1274;22532;-69
2023/12/06 10:50:25;;;;;;;;;;;;;;;3.15;100.00;98793.92;136055;1274;22511;-70
2023/12/06 10:53:28;;;;;;;78.90;38.90;;;;;;;2.92;100.00;98786.52;135991;1274;22575;-69
2023/12/06 10:56:30;;;;;;;;;;;;;;;2.84;100.00;98778.46;136115;1274;22509;-70
2023/12/06 10:59:33;;;;;;;75.20;35.30;;;;;;;2.78;100.00;98777.96;136065;1274;22527;-69
2023/12/06 11:02:35;;;;;;;;;;;;;;;2.78;100.00;98780.19;136074;1274;22521;-69
2023/12/06 11:05:39;;;;;;;79.80;35.00;;;;;;;2.79;100.00;98777.05;136007;1274;25942;-69
2023/12/06 11:08:42;;;;;;;84.80;42.30;;;;;;;2.93;100.00;98776.46;136016;1274;22562;-69
2023/12/06 11:11:44;;;;;;;;;;;;;;;2.99;100.00;98774.05;136017;1274;22508;-69
2023/12/06 11:14:47;;;;;;;62.70;30.40;;;;;;;3.17;100.00;98768.29;136000;1274;22536;-69
2023/12/06 11:17:49;;;;;;;;;;;;;;;3.34;100.00;98768.45;136105;1274;22521;-70
2023/12/06 11:20:55;;;;;;;64.00;28.70;;;;;;;3.35;100.00;98764.77;136035;1274;22549;-69
2023/12/06 11:23:57;;;;;;;70.00;31.60;;;;;;;3.39;100.00;98770.51;136009;1274;22543;-70
2023/12/06 11:27:00;;;;;;;66.20;30.50;;;;;;;3.16;100.00;98773.67;136001;1274;23018;-70
2023/12/06 11:30:03;;;;;;;71.00;31.50;;;;;;;3.01;100.00;98775.17;136061;1274;23961;-70
2023/12/06 11:33:05;;;;;;;68.40;31.50;;;;;;;2.85;100.00;98768.23;136078;1274;22998;-70
2023/12/06 11:36:08;;;;;;;66.10;29.00;;;;;;;2.80;100.00;98772.02;136124;1274;22567;-71
2023/12/06 11:39:11;;;;;;;;;;;;;;;2.68;100.00;98771.17;136087;1256;22513;-69
2023/12/06 11:42:13;;;;;;;73.70;31.40;;;;;;;2.61;100.00;98775.68;136117;1274;22565;-70
2023/12/06 11:45:16;;;;;;;;;;;;;;;2.58;100.00;98776.96;136106;1274;22507;-70
2023/12/06 11:48:18;;;;;;;68.70;30.50;;;;;;;2.55;100.00;98779.84;136119;1274;25325;-69
2023/12/06 11:51:21;;;;;;;69.00;31.70;;;;;;;2.60;100.00;98775.02;136066;1274;22597;-70
2023/12/06 11:54:24;;;;;;;70.80;32.30;;;;;;;2.63;100.00;98775.30;136094;1274;22517;-69
2023/12/06 11:57:27;;;;;;;;;;;;;;;2.67;100.00;98774.30;136092;1274;22507;-69
2023/12/06 12:00:29;;;;;;;70.50;31.70;;;;;;;2.53;100.00;98777.11;136097;1274;22539;-68
2023/12/06 12:03:32;;;;;;;69.10;31.00;;;;;;;2.21;100.00;98775.61;136111;1274;22519;-70
2023/12/06 12:06:35;;;;;;;71.90;34.20;;;;;;;2.17;100.00;98772.28;136031;1257;22606;-69
2023/12/06 12:09:37;;;;;;;;;;;;;;;2.29;100.00;98776.08;136119;1274;22513;-70
2023/12/06 12:12:40;;;;;;;82.30;35.00;;;;;;;2.37;100.00;98775.88;136088;1274;22688;-69
2023/12/06 12:15:43;;;;;;;;;;;;;;;2.46;100.00;98770.77;136141;1274;22500;-70
2023/12/06 12:18:46;;;;;;;75.20;32.20;;;;;;;2.44;100.00;98769.96;136103;1274;22529;-69
2023/12/06 12:21:48;;;;;;;;;;;;;;;2.41;100.00;98767.11;136109;1274;22511;-70
2023/12/06 12:24:51;;;;;;;75.40;34.30;;;;;;;2.39;100.00;98765.42;136020;1256;22530;-69
2023/12/06 12:27:54;;;;;;;71.60;33.80;;;;;;;2.27;100.00;98764.40;136011;1274;22533;-70
2023/12/06 12:30:56;;;;;;;73.60;33.50;;;;;;;2.23;100.00;98765.86;136013;1274;25409;-70
2023/12/06 12:33:59;;;;;;;71.50;33.50;;;;;;;2.26;100.00;98766.52;136050;1274;22522;-69
2023/12/06 12:37:01;;;;;;;77.20;35.80;;;;;;;2.30;100.00;98764.16;136030;1274;24217;-69
2023/12/06 12:40:04;;;;;;;;;;;;;;;2.41;100.00;98764.53;136044;1256;22515;-69
2023/12/06 12:43:07;;;;;;;79.00;34.40;;;;;;;2.37;100.00;98760.66;136019;1274;22526;-70
2023/12/06 12:46:09;;;;;;;;;;;;;;;2.45;100.00;98755.79;136040;1274;22572;-70
2023/12/06 12:49:12;;;;;;;76.00;33.10;;;;;;;2.37;100.00;98752.55;136147;1274;22530;-70
2023/12/06 12:52:15;;;;;;;;;;;;;;;2.34;100.00;98754.88;136065;1256;23784;-69
2023/12/06 12:55:18;;;;;;;82.10;35.90;;;;;;;2.24;100.00;98755.52;136082;1257;22523;-69
2023/12/06 12:58:20;;;;;;;69.80;33.20;;;;;;;2.11;100.00;98753.81;136057;1274;25711;-69
2023/12/06 13:01:23;;;;;;;;;;;;;;;1.92;100.00;98753.63;136027;1251;22498;-70
2023/12/06 13:04:25;;;;;;;73.20;32.10;;;;;;;1.82;100.00;98748.19;136029;1274;22523;-68
2023/12/06 13:07:28;;;;;;;;;;;;;;;1.68;100.00;98745.98;136002;1257;22957;-68
2023/12/06 13:10:30;;;;;;;77.60;33.20;;;;;;;1.65;100.00;98744.69;136054;1274;22571;-68
2023/12/06 13:13:33;;;;;;;;;;;;;;;1.59;100.00;98751.22;136021;1274;23086;-69
2023/12/06 13:16:36;;;;;;;74.80;34.20;;;;;;;1.56;100.00;98747.67;136016;1274;22513;-68
2023/12/06 13:19:41;;;;;;;;;;;;;;;1.52;100.00;98744.67;136002;1274;22497;-68
2023/12/06 13:22:43;;;;;;;81.20;35.50;;;;;;;1.55;100.00;98748.40;136037;1274;22530;-69
2023/12/06 13:25:46;;;;;;;76.80;34.90;;;;;;;1.57;100.00;98746.62;135984;1274;22551;-68
2023/12/06 13:28:48;;;;;;;;;;;;;;;1.62;100.00;98748.57;136055;1274;22553;-69
2023/12/06 13:31:51;;;;;;;78.30;33.90;;;;;;;1.60;100.00;98749.64;135964;1272;22532;-69
2023/12/06 13:34:54;;;;;;;76.30;34.90;;;;;;;1.50;100.00;98748.16;136049;1274;25259;-69
2023/12/06 13:37:57;;;;;;;;;;;;;;;1.29;100.00;98746.94;136093;1274;22507;-69
2023/12/06 13:41:01;;;;;;;77.80;36.80;;;;;;;1.08;100.00;98751.25;136037;1274;22526;-69
2023/12/06 13:44:03;;;;;;;;;;;;;;;0.96;100.00;98749.30;136074;1274;22505;-70
2023/12/06 13:47:06;;;;;;;88.70;39.20;;;;;;;0.87;100.00;98757.27;136068;1274;25386;-69
2023/12/06 13:50:09;;;;;;;;;;;;;;;0.78;100.00;98758.82;136132;1274;22497;-69
2023/12/06 13:53:12;;;;;;;95.90;41.30;;;;;;;0.75;100.00;98765.63;136009;1274;22635;-69
2023/12/06 13:56:14;;;;;;;;;;;;;;;0.65;100.00;98764.79;136049;1274;22516;-69
2023/12/06 13:59:18;;;;;;;103.50;41.60;;;;;;;0.60;100.00;98769.36;135938;1274;22568;-69
2023/12/06 14:02:21;;;;;;;95.40;42.60;;;;;;;0.56;100.00;98773.41;135938;1274;24182;-70
2023/12/06 14:05:23;;;;;;;;;;;;;;;0.47;100.00;98778.59;136007;1255;22505;-68
2023/12/06 14:08:26;;;;;;;103.20;44.30;;;;;;;0.38;100.00;98774.81;136062;1274;22530;-69